Time;durP1;ratioP1;P1;durP2;ratioP2;P2;SDS_P1;SDS_P2;PMS_P1;PMS_P2;Temp;Humidity;BMP_temperature;BMP_pressure;BME280_temperature;BME280_humidity;BME280_pressure;Samples;Min_cycle;Max_cycle;Signal;HPM_P1;HPM_P2
2021/06/03 00:00:09;;;;;;;;;;;;;;;11.64;61.54;100561.30;1843952;78;20116;-68
2021/06/03 00:02:37;;;;;;;;;;;;;;;11.61;61.69;100560.61;1844048;77;20076;-68
2021/06/03 00:05:05;;;;;;;;;;;;;;;11.58;61.70;100558.19;1844387;77;20378;-68
2021/06/03 00:07:32;;;;;;;;;;;;;;;11.55;61.82;100557.05;1843995;78;20119;-69
2021/06/03 00:10:01;;;;;;;;;;;;;;;11.53;61.91;100557.58;1848872;77;21117;-67
2021/06/03 00:12:27;;;;;;;;;;;;;;;11.50;61.94;100557.28;1849496;77;20150;-67
2021/06/03 00:14:56;;;;;;;;;;;;;;;11.49;62.12;100561.27;1850076;77;20068;-68
2021/06/03 00:17:23;;;;;;;;;;;;;;;11.47;62.05;100559.20;1850320;77;20174;-70
2021/06/03 00:19:51;;;;;;;;;;;;;;;11.45;62.10;100554.06;1850016;77;20091;-68
2021/06/03 00:22:18;;;;;;;;;;;;;;;11.45;62.12;100561.04;1850055;77;21540;-69
2021/06/03 00:24:46;;;;;;;;;;;;;;;11.44;62.11;100553.67;1849893;77;20406;-69
2021/06/03 00:27:12;;;;;;;;;;;;;;;11.44;62.11;100565.87;1850476;77;20124;-68
2021/06/03 00:29:41;;;;;;;;;;;;;;;11.43;62.22;100566.33;1849972;77;20080;-69
2021/06/03 00:32:08;;;;;;;;;;;;;;;11.43;62.22;100569.40;1850360;77;20099;-66
2021/06/03 00:34:35;;;;;;;;;;;;;;;11.42;62.25;100572.93;1849923;77;21913;-66
2021/06/03 00:37:01;;;;;;;;;;;;;;;11.41;62.21;100567.33;1850253;77;20407;-66
2021/06/03 00:39:29;;;;;;;;;;;;;;;11.41;62.17;100563.42;1849870;77;20111;-66
2021/06/03 00:41:56;;;;;;;;;;;;;;;11.41;62.16;100567.33;1849915;77;20118;-67
2021/06/03 00:44:23;;;;;;;;;;;;;;;11.40;62.21;100570.40;1850054;77;20119;-68
2021/06/03 00:46:52;;;;;;;;;;;;;;;11.39;62.33;100567.41;1849987;77;20092;-67
2021/06/03 00:49:20;;;;;;;;;;;;;;;11.36;62.36;100564.49;1849992;77;20080;-68
2021/06/03 00:51:47;;;;;;;;;;;;;;;11.35;62.49;100564.57;1850204;77;20088;-68
2021/06/03 00:54:14;;;;;;;;;;;;;;;11.33;62.57;100567.25;1850252;77;20092;-67
2021/06/03 00:56:41;;;;;;;;;;;;;;;11.32;62.63;100562.12;1850075;77;20115;-69
2021/06/03 00:59:09;;;;;;;;;;;;;;;11.30;62.74;100570.02;1849925;77;21128;-69
2021/06/03 01:01:36;;;;;;;;;;;;;;;11.29;62.89;100577.45;1849964;77;20088;-68
2021/06/03 01:04:05;;;;;;;;;;;;;;;11.28;62.90;100570.55;1849926;77;20118;-67
2021/06/03 01:06:34;;;;;;;;;;;;;;;11.26;62.96;100572.84;1849838;77;20214;-67
2021/06/03 01:09:07;;;;;;;;;;;;;;;11.23;63.10;100576.45;1849971;77;20418;-69
2021/06/03 01:11:42;;;;;;;;;;;;;;;11.20;63.20;100582.27;1849961;77;21528;-67
2021/06/03 01:14:27;;;;;;;;;;;;;;;11.17;63.36;100571.58;1850016;77;20068;-67
2021/06/03 01:16:58;;;;;;;;;;;;;;;11.15;63.52;100571.27;1849978;77;20067;-67
2021/06/03 01:19:31;;;;;;;;;;;;;;;11.10;63.65;100570.65;1849944;77;20362;-67
2021/06/03 01:22:05;;;;;;;;;;;;;;;11.05;63.72;100569.56;1850027;77;20438;-68
2021/06/03 01:24:40;;;;;;;;;;;;;;;11.02;63.87;100573.63;1850144;77;21121;-67
2021/06/03 01:27:15;;;;;;;;;;;;;;;11.01;63.99;100568.03;1850303;77;20080;-68
2021/06/03 01:29:58;;;;;;;;;;;;;;;10.98;64.02;100568.18;1848456;77;20088;-68
2021/06/03 01:32:26;;;;;;;;;;;;;;;10.98;64.09;100577.30;1849728;77;20088;-67
2021/06/03 01:34:54;;;;;;;;;;;;;;;10.96;64.24;100577.38;1819430;77;20099;-67
2021/06/03 01:37:21;;;;;;;;;;;;;;;10.95;64.28;100572.23;1849564;77;21104;-68
2021/06/03 01:39:48;;;;;;;;;;;;;;;10.92;64.42;100577.59;1849549;77;20075;-67
2021/06/03 01:42:17;;;;;;;;;;;;;;;10.91;64.58;100574.60;1849657;77;20156;-67
2021/06/03 01:44:46;;;;;;;;;;;;;;;10.89;64.67;100578.59;1849540;77;20123;-68
2021/06/03 01:47:14;;;;;;;;;;;;;;;10.88;64.76;100574.75;1819830;77;20119;-67
2021/06/03 01:49:43;;;;;;;;;;;;;;;10.84;64.78;100571.45;1849668;77;20418;-67
2021/06/03 01:52:13;;;;;;;;;;;;;;;10.83;64.94;100568.45;1849228;77;20088;-68
2021/06/03 01:54:42;;;;;;;;;;;;;;;10.82;65.11;100575.05;1850129;77;20386;-68
2021/06/03 01:57:10;;;;;;;;;;;;;;;10.80;65.09;100577.72;1850068;77;20366;-67
2021/06/03 01:59:39;;;;;;;;;;;;;;;10.81;65.13;100570.75;1849521;77;20080;-67
2021/06/03 02:02:07;;;;;;;;;;;;;;;10.82;65.03;100573.28;1850093;77;21896;-67
2021/06/03 02:04:36;;;;;;;;;;;;;;;10.85;65.01;100572.30;1849957;77;20107;-67
2021/06/03 02:07:04;;;;;;;;;;;;;;;10.89;64.96;100579.89;1850285;77;20100;-66
2021/06/03 02:09:31;;;;;;;;;;;;;;;10.92;64.96;100581.05;1847010;77;20104;-67
2021/06/03 02:12:00;;;;;;;;;;;;;;;10.94;64.97;100581.81;1818194;78;20139;-66
2021/06/03 02:14:30;;;;;;;;;;;;;;;10.97;64.98;100588.64;1817848;78;21590;-67
2021/06/03 02:16:59;;;;;;;;;;;;;;;10.99;65.03;100582.89;1840832;78;20092;-68
2021/06/03 02:19:53;;;;;;;;;;;;;;;11.01;64.94;100588.42;1840890;78;20382;-67
2021/06/03 02:22:21;;;;;;;;;;;;;;;11.08;64.91;100592.03;1841048;78;20427;-68
2021/06/03 02:24:49;;;;;;;;;;;;;;;11.19;64.66;100595.80;1840877;78;20080;-68
2021/06/03 02:27:17;;;;;;;;;;;;;;;11.34;64.32;100592.41;1840855;78;21517;-68
2021/06/03 02:29:45;;;;;;;;;;;;;;;11.56;63.81;100592.64;1840752;78;20139;-68
2021/06/03 02:32:15;;;;;;;;;;;;;;;11.80;63.21;100587.47;1839811;77;20457;-68
2021/06/03 02:34:48;;;;;;;;;;;;;;;12.09;62.39;100587.69;1817787;78;20076;-68
2021/06/03 02:37:15;;;;;;;;;;;;;;;12.35;61.58;100594.97;1840810;78;20116;-68
2021/06/03 02:39:48;;;;;;;5.92;3.60;;;;;;;12.67;60.68;100591.88;1838307;78;21782;-68
2021/06/03 02:42:19;;;;;;;6.15;3.40;;;;;;;13.01;59.86;100590.34;1838006;78;20888;-68
2021/06/03 02:44:48;;;;;;;4.42;3.37;;;;;;;13.41;58.84;100597.67;1838074;78;21553;-68
2021/06/03 02:47:18;;;;;;;6.80;3.47;;;;;;;13.73;57.67;100599.21;1825905;78;21458;-68
2021/06/03 02:49:45;;;;;;;5.70;3.20;;;;;;;13.99;56.67;100597.15;1817609;79;21010;-68
2021/06/03 02:52:13;;;;;;;6.33;3.60;;;;;;;14.25;55.75;100597.33;1817064;79;21293;-68
2021/06/03 02:54:42;;;;;;;6.45;3.27;;;;;;;14.42;55.24;100598.44;1819650;78;21412;-68
2021/06/03 02:57:10;;;;;;;3.50;3.20;;;;;;;14.64;54.75;100600.09;1837548;78;21492;-66
2021/06/03 02:59:37;;;;;;;5.58;3.67;;;;;;;14.95;53.75;100600.72;1837895;78;20967;-67
2021/06/03 03:02:05;;;;;;;3.65;3.17;;;;;;;15.29;53.04;100600.17;1837589;78;20927;-67
2021/06/03 03:04:33;;;;;;;5.25;3.08;;;;;;;15.65;51.98;100593.41;1837597;78;21563;-67
2021/06/03 03:07:00;;;;;;;3.45;3.15;;;;;;;16.03;50.93;100587.28;1837527;78;20923;-67
2021/06/03 03:09:28;;;;;;;3.75;3.15;;;;;;;16.38;49.69;100588.29;1839507;77;21501;-66
2021/06/03 03:11:56;;;;;;;4.35;3.05;;;;;;;16.64;48.99;100589.91;1847207;77;20966;-67
2021/06/03 03:14:25;;;;;;;5.42;2.85;;;;;;;16.95;48.78;100581.91;1847025;77;21489;-67
2021/06/03 03:16:55;;;;;;;5.75;3.47;;;;;;;17.32;47.75;100590.52;1817103;77;20848;-66
2021/06/03 03:19:23;;;;;;;4.97;3.30;;;;;;;17.59;46.84;100584.14;1847553;77;21456;-67
2021/06/03 03:21:50;;;;;;;3.95;2.90;;;;;;;17.78;45.95;100584.41;1847159;77;20867;-67
2021/06/03 03:24:18;;;;;;;5.78;3.00;;;;;;;17.83;45.72;100592.80;1847313;77;20950;-67
2021/06/03 03:26:46;;;;;;;9.13;3.05;;;;;;;17.71;45.64;100586.31;1847226;77;20930;-67
2021/06/03 03:29:13;;;;;;;3.40;3.10;;;;;;;17.58;45.74;100592.52;1847335;77;20933;-67
2021/06/03 03:31:40;;;;;;;4.30;2.80;;;;;;;17.43;45.89;100593.67;1816574;77;21438;-67
2021/06/03 03:34:08;;;;;;;4.20;3.00;;;;;;;17.33;46.29;100590.89;1822623;77;21527;-67
2021/06/03 03:36:37;;;;;;;5.00;2.87;;;;;;;17.40;46.21;100597.84;1815163;78;21419;-67
2021/06/03 03:39:06;;;;;;;5.35;3.42;;;;;;;17.47;46.23;100598.23;1814915;78;20991;-67
2021/06/03 03:41:34;;;;;;;4.45;3.20;;;;;;;17.62;45.59;100589.98;1815057;79;21077;-68
2021/06/03 03:44:01;;;;;;;6.87;3.12;;;;;;;17.74;45.45;100598.77;1829778;77;20848;-68
2021/06/03 03:46:30;;;;;;;7.65;3.00;;;;;;;17.81;45.06;100593.40;1826468;78;20947;-68
2021/06/03 03:48:59;;;;;;;5.97;3.20;;;;;;;17.84;44.84;100603.70;1826561;78;20904;-68
2021/06/03 03:51:28;;;;;;;4.58;3.02;;;;;;;17.94;44.86;100594.61;1826547;78;20955;-68
2021/06/03 03:53:59;;;;;;;6.20;2.72;;;;;;;18.12;44.38;100592.31;1826627;78;20881;-68
2021/06/03 03:56:26;;;;;;;3.52;2.55;;;;;;;18.29;44.27;100591.83;1826419;78;20924;-69
2021/06/03 03:58:54;;;;;;;3.70;2.98;;;;;;;18.60;43.76;100595.03;1826396;78;20947;-68
2021/06/03 04:01:22;;;;;;;4.92;2.70;;;;;;;18.96;43.04;100605.70;1843559;77;20958;-68
2021/06/03 04:03:50;;;;;;;7.83;3.25;;;;;;;19.23;42.29;100611.81;1847129;77;20875;-68
2021/06/03 04:06:19;;;;;;;5.83;2.95;;;;;;;19.29;41.78;100609.16;1832988;77;21067;-68
2021/06/03 04:08:48;;;;;;;7.40;2.90;;;;;;;19.30;41.90;100610.34;1832408;77;21497;-69
2021/06/03 04:11:16;;;;;;;3.40;2.60;;;;;;;19.41;41.70;100608.14;1828564;77;20970;-69
2021/06/03 04:13:46;;;;;;;3.67;2.92;;;;;;;19.49;41.32;100612.78;1822826;78;21142;-68
2021/06/03 04:16:14;;;;;;;2.70;2.50;;;;;;;19.46;41.17;100612.55;1811616;78;20933;-68
2021/06/03 04:18:41;;;;;;;5.58;2.30;;;;;;;19.47;41.29;100605.47;1817471;78;21161;-68
2021/06/03 04:21:08;;;;;;;5.42;2.55;;;;;;;19.49;40.96;100603.05;1814749;78;21357;-69
2021/06/03 04:23:37;;;;;;;2.90;2.52;;;;;;;19.49;41.15;100605.70;1818798;78;20976;-69
2021/06/03 04:26:05;;;;;;;4.30;2.72;;;;;;;19.62;41.21;100614.27;1817522;78;20950;-67
2021/06/03 04:28:32;;;;;;;6.00;2.77;;;;;;;19.78;40.82;100614.30;1816481;78;20999;-68
2021/06/03 04:30:59;;;;;;;6.17;2.77;;;;;;;19.90;40.57;100611.45;1816394;78;21948;-68
2021/06/03 04:33:27;;;;;;;4.53;2.70;;;;;;;20.14;40.47;100618.22;1815200;78;20899;-69
2021/06/03 04:35:54;;;;;;;6.20;2.90;;;;;;;20.37;39.92;100626.32;1814428;78;20985;-68
2021/06/03 04:38:21;;;;;;;4.37;2.83;;;;;;;20.53;39.78;100614.75;1797224;78;20987;-68
2021/06/03 04:40:48;;;;;;;5.10;2.85;;;;;;;20.79;39.64;100615.58;1810921;78;20897;-69
2021/06/03 04:43:15;;;;;;;9.00;3.25;;;;;;;21.18;39.24;100613.78;1823975;78;21805;-67
2021/06/03 04:45:42;;;;;;;5.25;3.12;;;;;;;21.52;38.04;100614.19;1823992;78;20853;-68
2021/06/03 04:48:09;;;;;;;4.62;2.70;;;;;;;21.69;38.16;100618.73;1816544;78;20986;-69
2021/06/03 04:50:37;;;;;;;4.60;2.87;;;;;;;21.86;37.47;100610.05;1818753;78;20968;-68
2021/06/03 04:53:04;;;;;;;3.95;2.65;;;;;;;21.96;36.86;100609.53;1836616;78;22163;-69
2021/06/03 04:55:32;;;;;;;3.70;2.60;;;;;;;21.90;36.90;100615.41;1818938;78;21679;-69
2021/06/03 04:57:59;;;;;;;3.72;2.67;;;;;;;21.82;36.96;100609.16;1810982;77;21453;-68
2021/06/03 05:00:32;;;;;;;4.50;2.70;;;;;;;21.77;37.51;100612.23;1811336;77;20994;-71
2021/06/03 05:03:00;;;;;;;4.97;2.90;;;;;;;21.81;36.76;100606.16;1797433;79;20856;-70
2021/06/03 05:05:27;;;;;;;;;;;;;;;21.79;36.74;100610.77;1795239;79;45229;-70
2021/06/03 05:07:56;;;;;;;2.60;2.40;;;;;;;21.64;36.92;100609.05;1802587;77;21182;-69
2021/06/03 05:10:24;;;;;;;3.47;2.37;;;;;;;21.51;37.08;100612.52;1789749;78;21462;-72
2021/06/03 05:12:51;;;;;;;6.20;3.35;;;;;;;21.34;37.80;100608.77;1792150;79;20990;-70
2021/06/03 05:15:19;;;;;;;5.00;3.10;;;;;;;21.43;37.75;100613.22;1796832;79;20964;-70
2021/06/03 05:17:47;;;;;;;4.03;2.52;;;;;;;21.47;37.56;100604.50;1795396;79;20930;-68
2021/06/03 05:20:16;;;;;;;8.10;2.70;;;;;;;21.58;37.21;100608.33;1794792;79;21253;-69
2021/06/03 05:22:45;;;;;;;4.30;2.40;;;;;;;21.58;36.71;100609.65;1800953;78;20872;-69
2021/06/03 05:25:15;;;;;;;6.47;2.50;;;;;;;21.54;36.62;100610.91;1771908;80;22255;-70
2021/06/03 05:27:44;;;;;;;3.42;2.20;;;;;;;21.54;36.62;100610.91;1736460;82;21776;-69
2021/06/03 05:30:14;;;;;;;4.72;2.60;;;;;;;21.60;36.75;100619.59;1738838;81;20937;-70
2021/06/03 05:32:41;;;;;;;6.15;2.22;;;;;;;21.72;37.03;100617.13;1724984;83;21138;-70
2021/06/03 05:35:11;;;;;;;2.92;2.50;;;;;;;21.99;37.04;100620.34;1760568;80;21548;-73
2021/06/03 05:37:39;;;;;;;3.00;2.70;;;;;;;22.49;35.34;100621.30;1763481;80;20993;-71
2021/06/03 05:40:09;;;;;;;6.45;2.60;;;;;;;22.49;35.34;100621.30;1754500;80;20922;-71
2021/06/03 05:42:36;;;;;;;4.12;2.60;;;;;;;22.54;35.44;100615.89;1760522;80;20981;-69
2021/06/03 05:45:07;;;;;;;4.83;2.52;;;;;;;22.56;35.30;100613.92;1759709;80;20915;-68
2021/06/03 05:47:37;;;;;;;2.87;2.45;;;;;;;22.57;34.60;100615.59;1798835;79;20966;-70
2021/06/03 05:50:07;;;;;;;5.72;2.60;;;;;;;22.56;35.09;100617.07;1766534;79;21495;-69
2021/06/03 05:52:35;;;;;;;5.40;2.52;;;;;;;22.70;34.71;100613.92;1797897;78;21543;-68
2021/06/03 05:55:05;;;;;;;3.75;2.27;;;;;;;22.92;33.94;100613.98;1793560;79;20934;-69
2021/06/03 05:57:32;;;;;;;2.72;2.27;;;;;;;23.05;33.49;100621.59;1760888;79;21063;-67
2021/06/03 05:59:59;;;;;;;4.58;2.60;;;;;;;23.10;33.77;100611.34;1803306;79;21175;-70
2021/06/03 06:02:43;;;;;;;3.25;2.60;;;;;;;23.19;33.26;100614.41;1790027;79;21540;-71
2021/06/03 06:07:44;;;;;;;4.45;2.70;;;;;;;23.53;32.75;100614.54;1796532;79;20891;-68
2021/06/03 06:10:13;;;;;;;2.90;2.55;;;;;;;23.48;32.64;100618.12;1793382;79;21194;-73
2021/06/03 06:12:40;;;;;;;3.75;2.20;;;;;;;23.52;32.72;100628.78;1804334;77;20958;-69
2021/06/03 06:15:09;;;;;;;4.40;2.55;;;;;;;23.73;32.66;100623.13;1804898;77;20895;-67
2021/06/03 06:17:36;;;;;;;4.45;2.40;;;;;;;23.92;32.47;100619.77;1814649;77;21048;-69
2021/06/03 06:20:05;;;;;;;4.35;2.67;;;;;;;24.14;31.61;100633.50;1811121;77;20962;-71
2021/06/03 06:22:34;;;;;;;3.35;2.37;;;;;;;24.11;31.99;100619.18;1801333;77;21035;-68
2021/06/03 06:25:03;;;;;;;2.60;2.40;;;;;;;24.01;31.54;100616.63;1805508;78;20977;-71
2021/06/03 06:27:30;;;;;;;3.65;2.25;;;;;;;23.99;31.55;100620.47;1818810;77;20875;-70
2021/06/03 06:29:59;;;;;;;8.03;2.98;;;;;;;24.00;31.95;100623.44;1811412;77;20939;-69
2021/06/03 06:32:28;;;;;;;8.10;2.72;;;;;;;23.96;31.27;100629.60;1795994;77;20970;-70
2021/06/03 06:34:55;;;;;;;2.77;1.98;;;;;;;23.82;31.59;100616.87;1815192;77;21161;-67
2021/06/03 06:37:23;;;;;;;5.17;2.67;;;;;;;23.76;31.94;100618.33;1823760;77;20907;-68
2021/06/03 06:39:50;;;;;;;3.98;2.80;;;;;;;23.79;32.33;100619.35;1810463;77;21414;-69
2021/06/03 06:42:19;;;;;;;6.25;2.37;;;;;;;23.92;31.87;100613.62;1819714;77;21091;-69
2021/06/03 06:44:46;;;;;;;5.17;2.40;;;;;;;24.00;31.62;100622.11;1827371;77;20979;-69
2021/06/03 06:47:13;;;;;;;10.48;2.72;;;;;;;23.98;31.23;100620.14;1808858;77;21727;-69
2021/06/03 06:49:41;;;;;;;8.25;2.40;;;;;;;23.91;30.88;100618.10;1820531;77;20917;-70
2021/06/03 06:52:13;;;;;;;3.42;1.90;;;;;;;23.80;30.21;100630.33;1824917;77;21053;-70
2021/06/03 06:54:41;;;;;;;5.53;2.02;;;;;;;23.62;30.38;100620.23;1815453;77;20954;-69
2021/06/03 06:57:09;;;;;;;10.45;2.83;;;;;;;23.57;30.62;100618.06;1803871;79;20938;-70
2021/06/03 06:59:36;;;;;;;3.17;2.00;;;;;;;23.52;30.83;100612.84;1818102;79;21927;-68
2021/06/03 07:02:03;;;;;;;5.62;2.17;;;;;;;23.61;30.56;100613.23;1812297;77;21488;-69
2021/06/03 07:04:30;;;;;;;3.70;1.95;;;;;;;23.57;30.43;100619.39;1787561;79;20929;-70
2021/06/03 07:06:57;;;;;;;2.47;2.02;;;;;;;23.47;30.47;100620.44;1792949;77;21486;-71
2021/06/03 07:09:26;;;;;;;6.97;2.30;;;;;;;23.50;30.69;100628.11;1817756;77;20985;-69
2021/06/03 07:11:54;;;;;;;8.25;2.58;;;;;;;23.54;31.30;100607.73;1791523;77;21207;-69
2021/06/03 07:14:21;;;;;;;3.15;2.15;;;;;;;23.66;29.75;100615.44;1775667;78;21544;-69
2021/06/03 07:16:48;;;;;;;42.08;5.47;;;;;;;23.65;29.52;100611.94;1767902;78;21078;-69
2021/06/03 07:19:15;;;;;;;18.20;3.20;;;;;;;23.43;28.68;100617.25;1792440;77;21038;-70
2021/06/03 07:21:46;;;;;;;2.42;2.22;;;;;;;23.07;29.30;100609.83;1781900;78;21594;-71
2021/06/03 07:24:14;;;;;;;3.90;2.00;;;;;;;22.72;30.08;100611.95;1781027;80;21062;-69
2021/06/03 07:26:41;;;;;;;6.20;2.20;;;;;;;22.55;31.35;100592.84;1807444;78;21494;-70
2021/06/03 07:29:08;;;;;;;12.43;2.58;;;;;;;22.70;30.98;100613.92;1783900;77;20955;-70
2021/06/03 07:31:35;;;;;;;6.72;2.20;;;;;;;22.82;31.14;100605.25;1790320;77;21297;-69
2021/06/03 07:34:05;;;;;;;5.15;2.00;;;;;;;22.68;31.27;100597.30;1773949;80;20902;-69
2021/06/03 07:36:35;;;;;;;4.58;1.92;;;;;;;22.39;31.45;100605.45;1763008;81;21132;-69
2021/06/03 07:39:06;;;;;;;2.00;1.90;;;;;;;22.25;30.92;100613.90;1787939;78;20980;-68
2021/06/03 07:41:36;;;;;;;16.32;2.42;;;;;;;22.39;30.64;100599.31;1776772;78;20996;-69
2021/06/03 07:44:04;;;;;;;3.83;2.12;;;;;;;22.45;30.28;100611.96;1768503;80;20940;-69
2021/06/03 07:46:32;;;;;;;6.40;2.17;;;;;;;22.35;30.51;100601.92;1788994;78;21719;-69
2021/06/03 07:48:59;;;;;;;4.53;1.98;;;;;;;22.14;30.53;100619.39;1785854;77;21223;-71
2021/06/03 07:51:28;;;;;;;4.17;2.30;;;;;;;21.89;31.02;100632.79;1799843;77;20917;-69
2021/06/03 07:53:56;;;;;;;8.33;2.10;;;;;;;21.73;31.25;100617.47;1788348;77;20987;-70
2021/06/03 07:56:26;;;;;;;2.37;2.02;;;;;;;21.50;31.84;100613.00;1788933;77;21617;-69
2021/06/03 07:58:53;;;;;;;5.03;2.02;;;;;;;21.18;31.84;100611.14;1794076;77;21019;-69
2021/06/03 08:01:20;;;;;;;2.10;1.90;;;;;;;20.86;32.88;100607.41;1796426;78;21125;-71
2021/06/03 08:03:48;;;;;;;2.12;1.60;;;;;;;20.69;32.80;100614.73;1802414;78;20976;-70
2021/06/03 08:06:15;;;;;;;4.40;2.08;;;;;;;20.60;32.55;100626.47;1787620;78;21028;-70
2021/06/03 08:08:42;;;;;;;13.85;2.83;;;;;;;20.74;33.05;100603.24;1787561;79;20985;-69
2021/06/03 08:11:09;;;;;;;6.37;2.87;;;;;;;20.93;33.31;100615.16;1788327;78;21466;-69
2021/06/03 08:13:38;;;;;;;3.50;2.80;;;;;;;20.98;33.59;100615.09;1789577;78;21525;-70
2021/06/03 08:16:05;;;;;;;2.30;2.10;;;;;;;21.08;33.70;100612.94;1797874;78;20965;-70
2021/06/03 08:18:35;;;;;;;3.17;2.00;;;;;;;21.19;33.36;100608.84;1802727;79;21012;-71
2021/06/03 08:21:04;;;;;;;2.22;1.95;;;;;;;21.24;32.68;100623.83;1783978;78;20907;-72
2021/06/03 08:23:33;;;;;;;2.60;2.00;;;;;;;21.50;32.73;100622.28;1784394;79;21042;-69
2021/06/03 08:26:01;;;;;;;8.58;2.20;;;;;;;21.50;32.73;100622.28;1799768;79;21153;-70
2021/06/03 08:28:28;;;;;;;5.30;1.98;;;;;;;21.73;32.48;100621.45;1790879;79;20926;-71
2021/06/03 08:30:56;;;;;;;3.50;1.90;;;;;;;21.87;32.76;100613.05;1795265;79;20988;-70
2021/06/03 08:33:24;;;;;;;4.10;1.80;;;;;;;21.89;32.09;100618.20;1796754;79;20872;-70
2021/06/03 08:35:51;;;;;;;3.02;1.95;;;;;;;21.77;32.50;100618.86;1794637;78;21033;-70
2021/06/03 08:38:19;;;;;;;6.03;2.30;;;;;;;21.63;32.84;100625.93;1803351;79;20998;-72
2021/06/03 08:40:51;;;;;;;5.40;2.40;;;;;;;21.51;32.86;100623.12;1788639;79;21035;-73
2021/06/03 08:43:22;;;;;;;4.78;1.67;;;;;;;21.39;33.02;100618.45;1803075;79;20950;-75
2021/06/03 08:45:51;;;;;;;4.30;2.17;;;;;;;21.24;33.18;100615.39;1803698;79;20939;-68
2021/06/03 08:48:18;;;;;;;3.42;1.57;;;;;;;21.29;32.57;100613.16;1806868;79;20970;-69
2021/06/03 08:50:49;;;;;;;6.45;1.87;;;;;;;21.29;32.57;100613.16;1797925;78;21035;-68
2021/06/03 08:53:17;;;;;;;2.02;1.70;;;;;;;21.30;32.34;100618.80;1791344;79;20887;-68
2021/06/03 08:58:30;;;;;;;2.33;2.12;;;;;;;21.08;33.21;100620.89;1800572;78;26392;-70
2021/06/03 09:01:03;;;;;;;9.40;2.22;;;;;;;21.07;33.90;100624.51;1791654;78;21009;-69
2021/06/03 09:03:31;;;;;;;5.28;2.08;;;;;;;21.25;33.45;100614.41;1797217;79;21529;-68
2021/06/03 09:05:59;;;;;;;3.95;2.27;;;;;;;21.47;33.58;100624.38;1796414;79;21619;-70
2021/06/03 09:08:31;;;;;;;1.90;1.80;;;;;;;21.53;32.53;100616.70;1796696;78;20962;-70
2021/06/03 09:11:11;;;;;;;2.40;1.87;;;;;;;21.46;32.88;100620.89;1793604;77;21025;-71
2021/06/03 09:13:47;;;;;;;4.17;2.00;;;;;;;21.42;33.18;100615.52;1831848;77;22209;-71
2021/06/03 09:16:19;;;;;;;5.00;1.90;;;;;;;21.48;33.12;100617.61;1837978;77;21555;-70
2021/06/03 09:18:53;;;;;;;6.72;2.10;;;;;;;21.52;33.48;100619.00;1829969;77;21504;-69
2021/06/03 09:21:27;;;;;;;5.58;2.30;;;;;;;21.51;33.78;100645.64;1834082;77;20991;-69
2021/06/03 09:24:00;;;;;;;3.70;2.20;;;;;;;21.46;33.57;100628.84;1829637;77;21005;-71
2021/06/03 09:26:30;;;;;;;2.05;1.90;;;;;;;21.40;32.63;100629.89;1838882;77;21497;-69
2021/06/03 09:28:59;;;;;;;2.45;2.15;;;;;;;21.30;33.21;100617.48;1830931;77;21078;-67
2021/06/03 09:31:29;;;;;;;5.22;2.08;;;;;;;21.32;33.39;100617.34;1835687;77;21001;-69
2021/06/03 09:34:07;;;;;;;4.55;1.80;;;;;;;21.35;33.61;100609.60;1828007;77;20937;-71
2021/06/03 09:36:50;;;;;;;5.45;1.95;;;;;;;21.30;33.52;100619.30;1816613;77;21063;-69
2021/06/03 09:39:38;;;;;;;7.35;2.10;;;;;;;21.25;32.95;100610.92;1825688;77;21032;-69
2021/06/03 09:42:15;;;;;;;3.52;2.30;;;;;;;21.17;33.76;100614.27;1819571;77;21558;-70
2021/06/03 09:44:49;;;;;;;2.50;2.00;;;;;;;21.18;34.14;100606.67;1821442;77;22408;-68
2021/06/03 09:47:19;;;;;;;7.53;2.72;;;;;;;21.30;33.32;100609.53;1823686;78;21497;-70
2021/06/03 09:49:57;;;;;;;10.78;2.50;;;;;;;21.30;33.32;100609.53;1811202;77;20940;-71
2021/06/03 09:52:29;;;;;;;6.28;2.20;;;;;;;21.20;33.64;100617.94;1825457;77;21809;-69
2021/06/03 09:55:02;;;;;;;5.05;2.20;;;;;;;21.05;34.17;100618.52;1822915;77;20996;-69
2021/06/03 09:57:35;;;;;;;4.25;2.30;;;;;;;20.86;33.47;100618.84;1812795;77;20945;-68
2021/06/03 10:00:21;;;;;;;1.87;1.77;;;;;;;20.66;34.17;100609.22;1826424;77;20949;-68
2021/06/03 10:02:53;;;;;;;2.98;2.22;;;;;;;20.57;34.85;100612.67;1824801;77;20933;-68
2021/06/03 10:05:22;;;;;;;4.55;2.05;;;;;;;20.60;35.33;100587.27;1830731;77;21712;-68
2021/06/03 10:07:57;;;;;;;5.53;2.30;;;;;;;20.75;36.09;100616.34;1828518;77;21580;-68
2021/06/03 10:10:28;;;;;;;5.33;2.37;;;;;;;20.88;35.41;100608.11;1827009;77;21410;-68
2021/06/03 10:12:55;;;;;;;3.25;2.37;;;;;;;20.93;35.28;100596.14;1839124;77;20891;-70
2021/06/03 10:15:29;;;;;;;6.08;2.27;;;;;;;21.04;35.33;100611.55;1845818;77;20986;-69
2021/06/03 10:18:02;;;;;;;3.35;2.30;;;;;;;21.15;34.96;100618.03;1850891;77;20948;-69
2021/06/03 10:20:53;;;;;;;2.80;1.90;;;;;;;21.15;34.96;100618.03;1862465;77;21132;-71
2021/06/03 10:23:24;;;;;;;2.72;2.05;;;;;;;21.13;34.79;100619.50;1863652;77;20931;-70
2021/06/03 10:26:04;;;;;;;2.10;2.00;;;;;;;20.98;34.97;100616.91;1863810;77;20884;-68
2021/06/03 10:28:38;;;;;;;7.33;2.30;;;;;;;20.86;34.32;100614.87;1863982;77;20892;-69
2021/06/03 10:31:11;;;;;;;2.27;2.10;;;;;;;20.84;35.63;100609.36;1864329;77;20935;-68
2021/06/03 10:33:36;;;;;;;6.08;2.00;;;;;;;20.91;35.71;100621.08;1863403;77;21522;-69
2021/06/03 10:36:08;;;;;;;2.55;1.95;;;;;;;20.93;35.02;100602.75;1863928;77;21474;-68
2021/06/03 10:38:35;;;;;;;4.20;2.10;;;;;;;20.88;34.09;100616.89;1860707;77;20880;-72
2021/06/03 10:41:06;;;;;;;6.97;2.17;;;;;;;20.77;34.07;100626.80;1812138;78;20925;-69
2021/06/03 10:43:36;;;;;;;2.33;2.12;;;;;;;20.70;34.10;100620.37;1819182;78;20922;-68
2021/06/03 10:46:07;;;;;;;2.02;1.90;;;;;;;20.68;34.08;100607.76;1822983;78;21101;-68
2021/06/03 10:48:35;;;;;;;3.95;1.92;;;;;;;20.74;34.82;100608.53;1823362;78;21025;-69
2021/06/03 10:51:07;;;;;;;5.22;2.10;;;;;;;20.81;34.96;100611.80;1823544;78;20911;-69
2021/06/03 10:53:45;;;;;;;3.58;2.10;;;;;;;20.89;35.74;100604.00;1822777;78;20950;-68
2021/06/03 10:56:15;;;;;;;4.85;2.30;;;;;;;20.94;36.01;100602.27;1795431;78;21243;-69
2021/06/03 10:58:46;;;;;;;3.83;2.33;;;;;;;21.01;35.24;100612.66;1817132;78;21100;-70
2021/06/03 11:01:18;;;;;;;5.55;2.25;;;;;;;21.07;34.36;100596.70;1795923;80;21005;-69
2021/06/03 11:03:53;;;;;;;4.53;2.35;;;;;;;21.11;34.02;100602.91;1790733;80;20966;-69
2021/06/03 11:06:25;;;;;;;4.08;2.50;;;;;;;21.20;34.71;100605.18;1799182;79;20970;-69
2021/06/03 11:09:03;;;;;;;3.67;2.08;;;;;;;21.26;34.62;100615.25;1752059;80;20933;-68
2021/06/03 11:11:38;;;;;;;6.47;2.45;;;;;;;21.28;34.26;100614.62;1772621;79;20931;-68
2021/06/03 11:14:12;;;;;;;3.87;2.00;;;;;;;21.25;34.98;100622.84;1792004;79;20915;-68
2021/06/03 11:16:46;;;;;;;4.80;2.35;;;;;;;21.22;34.77;100623.96;1760380;80;21021;-68
2021/06/03 11:22:04;;;;;;;3.72;2.02;;;;;;;21.30;34.34;100608.20;1868363;76;22524;-68
2021/06/03 11:24:39;;;;;;;6.83;2.08;;;;;;;21.35;34.12;100621.52;1829982;77;20998;-69
2021/06/03 11:27:14;;;;;;;2.98;2.20;;;;;;;21.35;33.98;100615.73;1857985;77;20930;-69
2021/06/03 11:29:54;;;;;;;5.78;2.15;;;;;;;21.33;33.92;100609.74;1835756;77;20879;-69
2021/06/03 11:32:31;;;;;;;4.67;2.47;;;;;;;21.34;33.53;100606.11;1845426;77;20926;-68
2021/06/03 11:35:11;;;;;;;4.95;2.22;;;;;;;21.26;33.60;100601.52;1833790;76;21471;-71
2021/06/03 11:37:44;;;;;;;4.35;2.33;;;;;;;21.22;34.27;100605.42;1810666;78;20945;-70
2021/06/03 11:40:20;;;;;;;3.05;2.27;;;;;;;21.17;34.66;100606.33;1835773;77;21020;-71
2021/06/03 11:42:58;;;;;;;3.30;1.92;;;;;;;21.07;33.19;100609.45;1790144;79;20997;-70
2021/06/03 11:45:32;;;;;;;2.20;1.90;;;;;;;21.07;33.19;100609.45;1794817;79;20962;-70
2021/06/03 11:48:11;;;;;;;2.02;1.85;;;;;;;21.07;33.46;100612.11;1798086;78;20942;-72
2021/06/03 11:50:54;;;;;;;3.75;2.10;;;;;;;21.10;32.95;100606.53;1770958;80;20986;-70
2021/06/03 11:53:26;;;;;;;3.58;2.50;;;;;;;21.10;33.71;100607.02;1779031;79;22001;-69
2021/06/03 11:56:19;;;;;;;3.98;2.25;;;;;;;20.98;34.52;100615.58;1800984;79;21025;-68
2021/06/03 11:58:48;;;;;;;4.58;2.08;;;;;;;20.98;34.52;100615.58;1772771;80;21006;-70